LDPL

Details ICAO LDPL (PUY)
Name Pula
Region Croatia
Timezone Europe/Zagreb (UTC+2.0)
Plans Departing 109
Arriving 176
Stats Elevation 274 ft / 84 m (AMSL)
Location 44.893531° 13.922156°
Runways 1
Magnetic Variation 3.532° E
Sunrise 2018-06-25 03:20:17 UTC / 2018-06-25 05:20:17 Local
Sunset 2018-06-25 18:55:57 UTC / 2018-06-25 20:55:57 Local
Advertisement - Login to hide

Runways

ID Width Length Bearing (true) Bearing (mag) Surface Threshold Offset Overrun Length
09 148 ft / 45 m 9,601 ft / 2,926 m 88.24° 84.71° Asphalt 250 ft / 76 m 0 ft / 0 m
27 148 ft / 45 m 9,601 ft / 2,926 m 268.27° 264.74° Asphalt 250 ft / 76 m 0 ft / 0 m

Approach Navaids

Runway Type Ident Frequency Range Bearing (true) Bearing (mag) Slope Elevation
27 Localiser IPU 111.50 MHz 25 nm / 46 km 268.28° 264.75° - 157 ft / 48 m (AMSL)
27 Glidescope IPU 111.50 MHz 25 nm / 46 km 268.28° 264.75° 3.20° 243 ft / 74 m (AMSL)

Map

Weather


0- 5 10 15 20 25 30 35+ Temperature / ° C

Clouds and Precipitation
Forecast for 2018-06-25 06:00 UTC. Updated 3 hours ago

Ground ~20,000 ft ~40,000 ft Winds

METAR

LDPL 250600Z 03006KT CAVOK 19/11 Q1015 NOSIG

TAF

TAF LDPL 250525Z 2506/2606 06007KT 9999 SCT035 TX21/2515Z TN14/2603Z BECMG 2507/2509 06012KT PROB40 TEMPO 2507/2512 SHRA SCT025TCU BKN030

Frequencies

Tower 120.00 MHz TWR
Approach 118.40 MHz APP
Warning: Do not use this data for real-world aviation or navigation. No guarantee of current accuracy is given.